createdAt,value
2019-06-01T00:00:10.399Z,17.71
2019-06-01T00:00:56.249Z,17.78
2019-06-01T00:01:56.264Z,17.63
2019-06-01T00:02:57.440Z,17.60
2019-06-01T00:03:56.306Z,17.59
2019-06-01T00:04:56.327Z,17.54
2019-06-01T00:05:56.348Z,17.41
2019-06-01T00:06:56.369Z,17.51
2019-06-01T00:07:56.394Z,17.49
2019-06-01T00:08:56.414Z,17.42
2019-06-01T00:09:56.442Z,17.42
2019-06-01T00:10:56.455Z,17.24
2019-06-01T00:11:56.488Z,17.26
2019-06-01T00:12:56.500Z,17.22
2019-06-01T00:13:56.526Z,17.22
2019-06-01T00:14:56.540Z,17.44
2019-06-01T00:15:56.557Z,17.49
2019-06-01T00:16:56.580Z,17.45
2019-06-01T00:17:56.601Z,17.39
2019-06-01T00:18:56.627Z,17.26
2019-06-01T00:19:56.643Z,17.23
2019-06-01T00:20:56.663Z,17.20
2019-06-01T00:21:56.687Z,17.16
2019-06-01T00:22:56.706Z,17.06
2019-06-01T00:23:56.728Z,16.93
2019-06-01T00:24:56.747Z,16.96
2019-06-01T00:25:56.769Z,16.97
2019-06-01T00:26:56.793Z,16.99
2019-06-01T00:27:56.833Z,16.99
2019-06-01T00:28:56.831Z,16.97
2019-06-01T00:29:56.854Z,16.93
2019-06-01T00:30:56.876Z,16.84
2019-06-01T00:31:56.896Z,16.89
2019-06-01T00:32:56.923Z,16.79
2019-06-01T00:33:56.938Z,16.79
2019-06-01T00:34:56.962Z,16.76
2019-06-01T00:35:56.980Z,16.74
2019-06-01T00:36:57.012Z,16.72
2019-06-01T00:37:57.020Z,16.69
2019-06-01T00:38:57.041Z,16.75
2019-06-01T00:39:57.062Z,16.74
2019-06-01T00:40:57.089Z,16.81
2019-06-01T00:41:57.106Z,16.96
2019-06-01T00:42:57.129Z,16.99
2019-06-01T00:43:57.148Z,16.94
2019-06-01T00:44:57.170Z,16.96
2019-06-01T00:45:57.197Z,16.96
2019-06-01T00:46:57.212Z,16.94
2019-06-01T00:47:57.232Z,16.97
2019-06-01T00:48:57.250Z,16.96
2019-06-01T00:49:57.274Z,16.93
2019-06-01T00:50:57.296Z,16.86
2019-06-01T00:51:57.314Z,16.78
2019-06-01T00:52:57.337Z,16.74
2019-06-01T00:53:57.360Z,16.71
2019-06-01T00:54:57.376Z,16.75
2019-06-01T00:55:57.400Z,16.75
2019-06-01T00:56:57.424Z,16.78
2019-06-01T00:57:57.436Z,16.71
2019-06-01T00:58:57.497Z,16.74
2019-06-01T00:59:57.480Z,16.76
2019-06-01T01:00:57.500Z,16.66
2019-06-01T01:01:57.524Z,16.71
2019-06-01T01:02:57.548Z,16.66
2019-06-01T01:03:57.568Z,16.54
2019-06-01T01:04:57.741Z,16.64
2019-06-01T01:05:57.604Z,16.60
2019-06-01T01:06:57.624Z,16.57
2019-06-01T01:07:57.645Z,16.51
2019-06-01T01:08:57.665Z,16.58
2019-06-01T01:09:57.687Z,16.51
2019-06-01T01:10:57.706Z,16.53
2019-06-01T01:11:57.729Z,16.60
2019-06-01T01:12:57.767Z,16.58
2019-06-01T01:13:57.770Z,16.50
2019-06-01T01:14:57.792Z,16.51
2019-06-01T01:15:57.811Z,16.47
2019-06-01T01:16:57.832Z,16.41
2019-06-01T01:17:57.853Z,16.32
2019-06-01T01:18:57.882Z,16.29
2019-06-01T01:19:57.895Z,16.33
2019-06-01T01:20:57.920Z,16.35
2019-06-01T01:21:57.932Z,16.28
2019-06-01T01:22:57.955Z,16.38
2019-06-01T01:23:57.977Z,16.29
2019-06-01T01:24:57.994Z,16.28
2019-06-01T01:25:58.017Z,16.26
2019-06-01T01:26:58.037Z,16.28
2019-06-01T01:27:58.063Z,16.32
2019-06-01T01:28:58.080Z,16.28
2019-06-01T01:29:58.099Z,16.26
2019-06-01T01:31:12.343Z,16.28
2019-06-01T01:31:58.145Z,16.23
2019-06-01T01:32:59.341Z,16.26
2019-06-01T01:33:58.180Z,16.23
2019-06-01T01:34:58.202Z,16.28
2019-06-01T01:35:58.221Z,16.31
2019-06-01T01:36:58.241Z,16.38
2019-06-01T01:37:58.309Z,16.35
2019-06-01T01:38:58.505Z,16.39
2019-06-01T01:39:58.656Z,16.31
2019-06-01T01:40:59.379Z,16.32
2019-06-01T01:41:58.660Z,16.32
2019-06-01T01:42:58.964Z,16.35
2019-06-01T01:43:58.711Z,16.28
2019-06-01T01:44:58.671Z,16.26
2019-06-01T01:45:59.000Z,16.26
2019-06-01T01:46:59.050Z,16.24
2019-06-01T01:47:59.241Z,16.29
2019-06-01T01:48:58.489Z,16.24
2019-06-01T01:49:58.510Z,16.15
2019-06-01T01:50:58.646Z,16.24
2019-06-01T01:51:59.545Z,16.17
2019-06-01T01:52:59.008Z,16.05
2019-06-01T01:53:58.830Z,16.12
2019-06-01T01:54:58.952Z,16.05
2019-06-01T01:55:59.083Z,16.12
2019-06-01T01:56:58.651Z,16.04
2019-06-01T01:57:59.527Z,16.00
2019-06-01T01:58:58.698Z,15.83
2019-06-01T01:59:59.441Z,15.92
2019-06-01T02:01:00.139Z,15.90
2019-06-01T02:01:58.753Z,15.88
2019-06-01T02:03:00.078Z,15.91
2019-06-01T02:03:59.114Z,15.95
2019-06-01T02:04:59.875Z,15.94
2019-06-01T02:05:59.117Z,15.88
2019-06-01T02:07:00.187Z,15.83
2019-06-01T02:08:00.057Z,15.86
2019-06-01T02:08:59.329Z,15.83
2019-06-01T02:09:59.282Z,15.70
2019-06-01T02:10:59.517Z,15.77
2019-06-01T02:11:59.618Z,15.70
2019-06-01T02:12:59.591Z,15.73
2019-06-01T02:13:59.951Z,15.72
2019-06-01T02:14:59.786Z,15.73
2019-06-01T02:16:00.549Z,15.76
2019-06-01T02:17:00.251Z,15.75
2019-06-01T02:18:00.642Z,15.70
2019-06-01T02:19:00.429Z,15.75
2019-06-01T02:20:00.198Z,15.70
2019-06-01T02:21:00.392Z,15.72
2019-06-01T02:21:59.157Z,15.68
2019-06-01T02:22:59.182Z,15.55
2019-06-01T02:23:59.198Z,15.57
2019-06-01T02:24:59.882Z,15.58
2019-06-01T02:25:59.238Z,15.64
2019-06-01T02:26:59.428Z,15.72
2019-06-01T02:27:59.334Z,15.62
2019-06-01T02:28:59.570Z,15.68
2019-06-01T02:29:59.474Z,15.65
2019-06-01T02:30:59.951Z,15.67
2019-06-01T02:32:01.504Z,15.62
2019-06-01T02:33:00.224Z,15.70
2019-06-01T02:34:01.477Z,15.65
2019-06-01T02:35:00.291Z,15.59
2019-06-01T02:36:00.663Z,15.54
2019-06-01T02:37:00.275Z,15.52
2019-06-01T02:38:00.384Z,15.57
2019-06-01T02:39:01.174Z,15.61
2019-06-01T02:40:00.959Z,15.58
2019-06-01T02:41:01.209Z,15.57
2019-06-01T02:42:01.038Z,15.51
2019-06-01T02:43:01.342Z,15.46
2019-06-01T02:44:01.394Z,15.58
2019-06-01T02:45:01.150Z,15.55
2019-06-01T02:46:00.451Z,15.57
2019-06-01T02:47:01.343Z,15.62
2019-06-01T02:48:01.489Z,15.55
2019-06-01T02:49:00.350Z,15.64
2019-06-01T02:49:59.727Z,15.59
2019-06-01T02:50:59.939Z,15.51
2019-06-01T02:51:59.765Z,15.54
2019-06-01T02:52:59.792Z,15.62
2019-06-01T02:53:59.799Z,15.54
2019-06-01T02:54:59.822Z,15.54
2019-06-01T02:55:59.992Z,15.46
2019-06-01T02:57:00.219Z,15.43
2019-06-01T02:58:00.239Z,15.49
2019-06-01T02:59:00.330Z,15.39
2019-06-01T03:00:00.416Z,15.39
2019-06-01T03:01:00.608Z,15.47
2019-06-01T03:02:06.704Z,15.36
2019-06-01T03:03:00.727Z,15.36
2019-06-01T03:04:01.334Z,15.40
2019-06-01T03:05:01.161Z,15.39
2019-06-01T03:06:01.321Z,15.39
2019-06-01T03:07:00.062Z,15.40
2019-06-01T03:08:00.077Z,15.39
2019-06-01T03:09:00.102Z,15.35
2019-06-01T03:10:00.857Z,15.49
2019-06-01T03:11:00.136Z,15.36
2019-06-01T03:12:00.924Z,15.35
2019-06-01T03:13:00.181Z,15.37
2019-06-01T03:14:00.380Z,15.36
2019-06-01T03:15:00.436Z,15.39
2019-06-01T03:16:00.308Z,15.39
2019-06-01T03:17:01.733Z,15.37
2019-06-01T03:18:01.452Z,15.35
2019-06-01T03:19:01.711Z,15.35
2019-06-01T03:20:01.693Z,15.36
2019-06-01T03:21:01.527Z,15.36
2019-06-01T03:22:03.132Z,15.36
2019-06-01T03:23:01.679Z,15.42
2019-06-01T03:24:00.399Z,15.37
2019-06-01T03:25:00.416Z,15.40
2019-06-01T03:26:00.434Z,15.43
2019-06-01T03:27:00.461Z,15.37
2019-06-01T03:28:00.475Z,15.39
2019-06-01T03:29:00.500Z,15.39
2019-06-01T03:30:00.525Z,15.43
2019-06-01T03:31:01.108Z,15.39
2019-06-01T03:32:19.137Z,15.43
2019-06-01T03:33:01.184Z,15.37
2019-06-01T03:34:01.479Z,15.43
2019-06-01T03:35:00.615Z,15.39
2019-06-01T03:36:00.768Z,15.42
2019-06-01T03:37:01.069Z,15.43
2019-06-01T03:38:00.886Z,15.40
2019-06-01T03:39:02.014Z,15.47
2019-06-01T03:40:01.078Z,15.43
2019-06-01T03:41:02.012Z,15.44
2019-06-01T03:42:01.041Z,15.44
2019-06-01T03:43:00.780Z,15.44
2019-06-01T03:44:00.797Z,15.44
2019-06-01T03:45:01.361Z,15.49
2019-06-01T03:46:00.832Z,15.58
2019-06-01T03:47:01.535Z,15.49
2019-06-01T03:48:00.874Z,15.42
2019-06-01T03:49:01.454Z,15.46
2019-06-01T03:50:00.912Z,15.40
2019-06-01T03:51:01.566Z,15.44
2019-06-01T03:52:00.955Z,15.39
2019-06-01T03:53:01.750Z,15.49
2019-06-01T03:54:01.008Z,15.44
2019-06-01T03:55:01.820Z,15.47
2019-06-01T03:56:01.660Z,15.43
2019-06-01T03:57:01.088Z,15.46
2019-06-01T03:58:01.111Z,15.58
2019-06-01T03:59:01.097Z,15.58
2019-06-01T04:00:01.171Z,15.58
2019-06-01T04:01:01.134Z,15.57
2019-06-01T04:02:01.153Z,15.64
2019-06-01T04:03:01.175Z,15.62
2019-06-01T04:04:01.192Z,15.58
2019-06-01T04:05:01.324Z,15.52
2019-06-01T04:06:01.259Z,15.57
2019-06-01T04:07:01.333Z,15.65
2019-06-01T04:08:01.396Z,15.65
2019-06-01T04:09:01.620Z,15.67
2019-06-01T04:10:01.794Z,15.68
2019-06-01T04:11:01.467Z,15.67
2019-06-01T04:12:01.440Z,15.80
2019-06-01T04:13:01.493Z,15.80
2019-06-01T04:14:01.578Z,15.82
2019-06-01T04:15:08.366Z,15.79
2019-06-01T04:16:01.761Z,15.91
2019-06-01T04:17:01.980Z,15.86
2019-06-01T04:18:01.884Z,15.98
2019-06-01T04:19:01.712Z,15.90
2019-06-01T04:20:02.034Z,15.98
2019-06-01T04:21:02.359Z,15.91
2019-06-01T04:22:01.931Z,16.01
2019-06-01T04:23:02.020Z,16.00
2019-06-01T04:24:01.918Z,16.04
2019-06-01T04:25:02.042Z,15.98
2019-06-01T04:26:02.176Z,16.01
2019-06-01T04:27:02.046Z,16.02
2019-06-01T04:28:02.112Z,15.97
2019-06-01T04:29:02.281Z,15.82
2019-06-01T04:30:02.527Z,16.02
2019-06-01T04:31:02.315Z,16.09
2019-06-01T04:32:02.494Z,16.05
2019-06-01T04:33:02.574Z,16.04
2019-06-01T04:34:02.498Z,16.00
2019-06-01T04:35:03.319Z,16.05
2019-06-01T04:36:02.733Z,16.24
2019-06-01T04:37:03.498Z,16.28
2019-06-01T04:38:02.964Z,16.13
2019-06-01T04:39:03.228Z,16.36
2019-06-01T04:40:03.235Z,16.26
2019-06-01T04:41:01.938Z,16.28
2019-06-01T04:42:01.961Z,16.24
2019-06-01T04:43:01.979Z,16.32
2019-06-01T04:44:02.000Z,16.24
2019-06-01T04:45:02.270Z,16.20
2019-06-01T04:46:02.041Z,16.26
2019-06-01T04:47:02.063Z,16.32
2019-06-01T04:48:02.087Z,16.36
2019-06-01T04:49:02.101Z,16.33
2019-06-01T04:50:02.128Z,16.29
2019-06-01T04:51:02.142Z,16.35
2019-06-01T04:52:02.171Z,16.35
2019-06-01T04:53:02.184Z,16.28
2019-06-01T04:54:02.207Z,16.33
2019-06-01T04:55:02.228Z,16.41
2019-06-01T04:56:02.247Z,16.36
2019-06-01T04:57:02.268Z,16.39
2019-06-01T04:58:02.293Z,16.43
2019-06-01T04:59:02.309Z,16.49
2019-06-01T05:00:03.176Z,16.47
2019-06-01T05:01:02.348Z,16.46
2019-06-01T05:02:02.371Z,16.39
2019-06-01T05:03:06.758Z,16.43
2019-06-01T05:04:02.418Z,16.50
2019-06-01T05:05:02.464Z,16.47
2019-06-01T05:06:02.453Z,16.43
2019-06-01T05:07:02.471Z,16.42
2019-06-01T05:08:02.494Z,16.47
2019-06-01T05:09:02.518Z,16.43
2019-06-01T05:10:02.541Z,16.47
2019-06-01T05:11:05.379Z,16.54
2019-06-01T05:12:02.583Z,16.58
2019-06-01T05:13:02.594Z,16.53
2019-06-01T05:14:02.617Z,16.53
2019-06-01T05:15:02.639Z,16.51
2019-06-01T05:16:02.663Z,16.66
2019-06-01T05:17:02.679Z,16.72
2019-06-01T05:18:02.703Z,16.64
2019-06-01T05:19:02.726Z,16.68
2019-06-01T05:20:02.775Z,16.66
2019-06-01T05:21:02.775Z,16.76
2019-06-01T05:22:02.780Z,16.76
2019-06-01T05:23:02.807Z,16.89
2019-06-01T05:24:02.825Z,16.90
2019-06-01T05:25:02.880Z,16.90
2019-06-01T05:26:02.865Z,16.94
2019-06-01T05:27:02.884Z,16.99
2019-06-01T05:28:02.906Z,16.94
2019-06-01T05:29:02.924Z,17.02
2019-06-01T05:30:02.948Z,17.08
2019-06-01T05:31:02.966Z,17.14
2019-06-01T05:32:02.991Z,17.11
2019-06-01T05:33:03.007Z,17.29
2019-06-01T05:34:03.028Z,17.39
2019-06-01T05:35:03.249Z,17.34
2019-06-01T05:36:03.073Z,17.39
2019-06-01T05:37:03.091Z,17.49
2019-06-01T05:38:03.116Z,17.51
2019-06-01T05:39:03.162Z,17.60
2019-06-01T05:40:03.153Z,17.70
2019-06-01T05:41:03.179Z,17.76
2019-06-01T05:42:03.197Z,17.78
2019-06-01T05:43:03.218Z,17.90
2019-06-01T05:44:03.240Z,17.97
2019-06-01T05:45:03.258Z,18.01
2019-06-01T05:46:03.284Z,18.11
2019-06-01T05:47:03.318Z,18.04
2019-06-01T05:48:03.338Z,18.01
2019-06-01T05:49:03.350Z,18.18
2019-06-01T05:50:03.365Z,18.13
2019-06-01T05:51:03.389Z,18.04
2019-06-01T05:52:03.413Z,18.04
2019-06-01T05:53:03.440Z,18.11
2019-06-01T05:54:03.456Z,18.23
2019-06-01T05:55:03.474Z,18.34
2019-06-01T05:56:03.499Z,18.44
2019-06-01T05:57:03.524Z,18.52
2019-06-01T05:58:03.541Z,18.55
2019-06-01T05:59:03.566Z,18.63
2019-06-01T06:00:03.587Z,18.71
2019-06-01T06:01:03.610Z,18.78
2019-06-01T06:02:03.633Z,18.78
2019-06-01T06:03:03.654Z,18.77
2019-06-01T06:04:03.679Z,19.07
2019-06-01T06:05:03.697Z,18.96
2019-06-01T06:06:03.720Z,18.96
2019-06-01T06:07:03.749Z,18.96
2019-06-01T06:08:03.767Z,19.07
2019-06-01T06:09:03.797Z,18.88
2019-06-01T06:10:03.812Z,18.90
2019-06-01T06:11:03.836Z,18.78
2019-06-01T06:12:03.859Z,18.96
2019-06-01T06:13:03.883Z,19.11
2019-06-01T06:14:03.908Z,18.92
2019-06-01T06:15:03.930Z,18.78
2019-06-01T06:16:03.955Z,19.00
2019-06-01T06:17:03.976Z,19.11
2019-06-01T06:18:03.999Z,19.18
2019-06-01T06:19:04.031Z,19.29
2019-06-01T06:20:04.045Z,19.37
2019-06-01T06:21:04.075Z,19.49
2019-06-01T06:22:04.093Z,19.58
2019-06-01T06:23:04.117Z,19.64
2019-06-01T06:24:04.139Z,19.64
2019-06-01T06:25:04.268Z,19.84
2019-06-01T06:26:04.188Z,19.85
2019-06-01T06:27:04.215Z,19.95
2019-06-01T06:28:04.241Z,19.95
2019-06-01T06:29:04.273Z,19.96
2019-06-01T06:30:04.286Z,20.00
2019-06-01T06:31:04.304Z,20.11
2019-06-01T06:32:04.333Z,20.31
2019-06-01T06:33:04.354Z,20.34
2019-06-01T06:34:04.382Z,20.41
2019-06-01T06:35:04.413Z,20.37
2019-06-01T06:36:04.427Z,20.39
2019-06-01T06:37:04.456Z,20.24
2019-06-01T06:38:04.475Z,20.24
2019-06-01T06:39:04.822Z,20.13
2019-06-01T06:40:04.525Z,20.10
2019-06-01T06:41:04.549Z,20.18
2019-06-01T06:42:04.573Z,20.10
2019-06-01T06:43:18.635Z,20.14
2019-06-01T06:44:04.624Z,20.26
2019-06-01T06:45:04.652Z,20.25
2019-06-01T06:46:04.670Z,20.29
2019-06-01T06:47:04.705Z,20.37
2019-06-01T06:48:04.737Z,20.29
2019-06-01T06:49:04.751Z,20.31
2019-06-01T06:50:04.769Z,20.47
2019-06-01T06:51:04.798Z,20.55
2019-06-01T06:52:04.816Z,20.65
2019-06-01T06:53:04.841Z,20.62
2019-06-01T06:54:04.876Z,20.67
2019-06-01T06:55:04.904Z,20.77
2019-06-01T06:56:04.918Z,20.88
2019-06-01T06:57:04.938Z,20.81
2019-06-01T06:58:04.963Z,20.67
2019-06-01T06:59:04.985Z,20.65
2019-06-01T07:00:05.011Z,20.80
2019-06-01T07:01:05.117Z,20.93
2019-06-01T07:02:05.062Z,21.03
2019-06-01T07:03:05.083Z,21.02
2019-06-01T07:04:12.519Z,21.22
2019-06-01T07:05:05.153Z,21.14
2019-06-01T07:06:05.171Z,21.24
2019-06-01T07:07:05.251Z,21.18
2019-06-01T07:08:05.219Z,21.21
2019-06-01T07:09:05.241Z,21.24
2019-06-01T07:10:05.254Z,21.32
2019-06-01T07:11:05.281Z,21.52
2019-06-01T07:12:05.321Z,21.40
2019-06-01T07:13:05.345Z,21.60
2019-06-01T07:14:05.355Z,21.55
2019-06-01T07:15:05.391Z,21.62
2019-06-01T07:16:05.407Z,21.64
2019-06-01T07:17:05.442Z,21.61
2019-06-01T07:18:05.460Z,21.60
2019-06-01T07:19:05.488Z,21.57
2019-06-01T07:20:05.530Z,21.52
2019-06-01T07:21:05.564Z,21.55
2019-06-01T07:22:05.558Z,21.64
2019-06-01T07:23:05.595Z,21.85
2019-06-01T07:24:05.615Z,21.79
2019-06-01T07:25:05.639Z,21.69
2019-06-01T07:26:05.659Z,21.66
2019-06-01T07:27:05.700Z,21.75
2019-06-01T07:28:05.709Z,21.72
2019-06-01T07:29:05.754Z,21.76
2019-06-01T07:30:05.769Z,21.83
2019-06-01T07:31:05.797Z,21.70
2019-06-01T07:32:05.815Z,21.64
2019-06-01T07:33:05.839Z,21.83
2019-06-01T07:34:05.862Z,21.80
2019-06-01T07:35:05.888Z,21.77
2019-06-01T07:36:05.916Z,21.67
2019-06-01T07:37:05.941Z,21.73
2019-06-01T07:38:05.966Z,21.67
2019-06-01T07:39:05.993Z,21.66
2019-06-01T07:40:06.018Z,21.64
2019-06-01T07:41:06.041Z,21.67
2019-06-01T07:42:06.086Z,21.69
2019-06-01T07:43:06.095Z,21.70
2019-06-01T07:44:06.123Z,21.70
2019-06-01T07:45:06.146Z,21.96
2019-06-01T07:46:06.168Z,22.06
2019-06-01T07:47:06.194Z,21.99
2019-06-01T07:48:06.220Z,22.02
2019-06-01T07:49:06.249Z,21.95
2019-06-01T07:50:06.268Z,22.07
2019-06-01T07:51:06.295Z,21.88
2019-06-01T07:52:12.745Z,21.83
2019-06-01T07:53:06.343Z,21.79
2019-06-01T07:54:06.369Z,21.70
2019-06-01T07:55:06.398Z,21.62
2019-06-01T07:56:06.421Z,21.66
2019-06-01T07:57:06.444Z,21.60
2019-06-01T07:58:06.477Z,21.69
2019-06-01T07:59:06.494Z,21.54
2019-06-01T08:00:06.524Z,21.69
2019-06-01T08:01:06.553Z,21.70
2019-06-01T08:02:06.580Z,21.73
2019-06-01T08:03:06.594Z,21.85
2019-06-01T08:04:06.619Z,21.83
2019-06-01T08:05:06.647Z,22.02
2019-06-01T08:06:06.668Z,22.00
2019-06-01T08:07:06.693Z,22.08
2019-06-01T08:08:06.718Z,22.23
2019-06-01T08:09:06.783Z,22.30
2019-06-01T08:10:06.783Z,22.43
2019-06-01T08:11:06.795Z,22.45
2019-06-01T08:12:06.815Z,22.47
2019-06-01T08:13:06.849Z,22.39
2019-06-01T08:14:06.870Z,22.17
2019-06-01T08:15:06.898Z,22.02
2019-06-01T08:16:06.916Z,21.95
2019-06-01T08:17:06.949Z,22.07
2019-06-01T08:18:06.970Z,22.22
2019-06-01T08:19:06.986Z,22.22
2019-06-01T08:20:07.011Z,22.53
2019-06-01T08:21:07.043Z,22.80
2019-06-01T08:22:07.126Z,22.81
2019-06-01T08:23:07.103Z,23.00
2019-06-01T08:24:07.223Z,22.85
2019-06-01T08:25:07.134Z,22.80
2019-06-01T08:26:07.161Z,22.87
2019-06-01T08:27:07.184Z,22.87
2019-06-01T08:28:07.212Z,22.83
2019-06-01T08:29:07.233Z,22.87
2019-06-01T08:30:07.261Z,22.72
2019-06-01T08:31:07.283Z,22.66
2019-06-01T08:32:07.311Z,22.66
2019-06-01T08:33:07.336Z,22.78
2019-06-01T08:34:07.382Z,22.62
2019-06-01T08:35:09.281Z,22.50
2019-06-01T08:36:07.408Z,22.35
2019-06-01T08:37:07.434Z,22.15
2019-06-01T08:38:07.458Z,22.02
2019-06-01T08:39:07.490Z,21.98
2019-06-01T08:40:07.508Z,21.96
2019-06-01T08:41:07.532Z,22.08
2019-06-01T08:42:07.639Z,22.07
2019-06-01T08:43:07.581Z,22.29
2019-06-01T08:44:07.607Z,22.45
2019-06-01T08:45:07.654Z,22.69
2019-06-01T08:46:07.664Z,22.83
2019-06-01T08:47:07.681Z,22.93
2019-06-01T08:48:07.712Z,23.10
2019-06-01T08:49:07.742Z,23.20
2019-06-01T08:50:07.756Z,23.00
2019-06-01T08:51:07.780Z,22.72
2019-06-01T08:52:07.811Z,22.60
2019-06-01T08:53:07.837Z,22.43
2019-06-01T08:54:07.868Z,22.43
2019-06-01T08:55:07.879Z,22.43
2019-06-01T08:56:07.913Z,22.53
2019-06-01T08:57:08.004Z,22.59
2019-06-01T08:58:07.955Z,22.68
2019-06-01T08:59:07.978Z,22.57
2019-06-01T09:00:08.005Z,22.53
2019-06-01T09:01:08.026Z,22.62
2019-06-01T09:02:08.057Z,22.78
2019-06-01T09:03:08.075Z,22.83
2019-06-01T09:04:08.108Z,22.96
2019-06-01T09:05:21.282Z,23.25
2019-06-01T09:06:08.159Z,23.21
2019-06-01T09:07:08.185Z,23.46
2019-06-01T09:08:08.201Z,23.40
2019-06-01T09:09:11.537Z,23.50
2019-06-01T09:10:08.251Z,23.48
2019-06-01T09:11:08.285Z,23.27
2019-06-01T09:12:08.301Z,23.02
2019-06-01T09:13:08.323Z,23.09
2019-06-01T09:14:08.351Z,23.17
2019-06-01T09:15:08.380Z,23.40
2019-06-01T09:16:08.401Z,23.44
2019-06-01T09:17:08.426Z,23.68
2019-06-01T09:18:08.449Z,23.93
2019-06-01T09:19:11.197Z,24.05
2019-06-01T09:20:08.498Z,23.99
2019-06-01T09:21:08.530Z,23.96
2019-06-01T09:22:08.552Z,23.95
2019-06-01T09:23:08.574Z,23.78
2019-06-01T09:24:08.599Z,23.86
2019-06-01T09:25:08.624Z,23.96
2019-06-01T09:26:08.655Z,23.93
2019-06-01T09:27:08.677Z,23.88
2019-06-01T09:28:08.703Z,24.01
2019-06-01T09:29:08.727Z,24.10
2019-06-01T09:30:08.753Z,23.86
2019-06-01T09:31:08.777Z,23.91
2019-06-01T09:32:11.107Z,23.95
2019-06-01T09:33:08.828Z,23.96
2019-06-01T09:34:08.854Z,23.95
2019-06-01T09:35:08.879Z,23.99
2019-06-01T09:36:08.967Z,24.03
2019-06-01T09:37:08.928Z,23.98
2019-06-01T09:38:08.957Z,24.13
2019-06-01T09:39:08.985Z,24.14
2019-06-01T09:40:09.007Z,24.20
2019-06-01T09:41:09.037Z,24.14
2019-06-01T09:42:09.063Z,24.18
2019-06-01T09:43:09.091Z,24.20
2019-06-01T09:44:09.108Z,24.21
2019-06-01T09:45:09.133Z,24.20
2019-06-01T09:46:09.182Z,24.29
2019-06-01T09:47:09.189Z,24.38
2019-06-01T09:48:09.219Z,24.38
2019-06-01T09:49:09.234Z,24.36
2019-06-01T09:50:09.260Z,24.36
2019-06-01T09:51:09.286Z,24.36
2019-06-01T09:52:12.286Z,24.36
2019-06-01T09:53:09.337Z,24.36
2019-06-01T09:54:09.366Z,24.30
2019-06-01T09:55:09.424Z,24.32
2019-06-01T09:56:09.417Z,24.35
2019-06-01T09:57:09.451Z,24.33
2019-06-01T09:58:09.468Z,24.33
2019-06-01T09:59:09.491Z,24.48
2019-06-01T10:00:09.526Z,24.63
2019-06-01T10:01:09.542Z,24.65
2019-06-01T10:02:09.569Z,24.74
2019-06-01T10:03:09.597Z,24.70
2019-06-01T10:04:09.630Z,24.77
2019-06-01T10:05:09.645Z,24.74
2019-06-01T10:06:13.745Z,24.69
2019-06-01T10:07:09.699Z,24.65
2019-06-01T10:08:09.728Z,24.43
2019-06-01T10:09:09.771Z,24.02
2019-06-01T10:10:09.832Z,23.77
2019-06-01T10:11:09.808Z,23.76
2019-06-01T10:12:09.826Z,23.87
2019-06-01T10:13:09.854Z,24.06
2019-06-01T10:14:09.880Z,24.35
2019-06-01T10:15:09.907Z,24.35
2019-06-01T10:16:09.933Z,24.35
2019-06-01T10:17:09.954Z,24.47
2019-06-01T10:18:09.981Z,24.53
2019-06-01T10:19:10.019Z,24.60
2019-06-01T10:20:10.045Z,24.57
2019-06-01T10:21:10.057Z,24.69
2019-06-01T10:22:10.091Z,24.76
2019-06-01T10:23:10.119Z,24.89
2019-06-01T10:24:10.140Z,24.76
2019-06-01T10:25:10.161Z,24.68
2019-06-01T10:26:10.186Z,24.43
2019-06-01T10:27:10.221Z,24.39
2019-06-01T10:28:10.242Z,24.50
2019-06-01T10:29:10.266Z,24.65
2019-06-01T10:30:10.293Z,24.76
2019-06-01T10:31:10.321Z,24.91
2019-06-01T10:32:10.693Z,25.04
2019-06-01T10:33:10.374Z,24.99
2019-06-01T10:34:10.398Z,24.92
2019-06-01T10:35:10.423Z,24.96
2019-06-01T10:36:20.750Z,24.85
2019-06-01T10:37:10.486Z,24.86
2019-06-01T10:38:10.498Z,25.04
2019-06-01T10:39:10.526Z,24.93
2019-06-01T10:40:10.549Z,24.85
2019-06-01T10:41:10.574Z,24.85
2019-06-01T10:42:10.602Z,24.93
2019-06-01T10:43:10.635Z,24.69
2019-06-01T10:44:10.652Z,24.70
2019-06-01T10:45:10.677Z,25.03
2019-06-01T10:46:10.712Z,25.13
2019-06-01T10:47:10.734Z,25.25
2019-06-01T10:48:10.765Z,25.25
2019-06-01T10:49:10.829Z,25.26
2019-06-01T10:50:10.814Z,25.29
2019-06-01T10:51:10.834Z,25.38
2019-06-01T10:52:10.864Z,25.36
2019-06-01T10:53:10.892Z,25.26
2019-06-01T10:54:10.915Z,25.29
2019-06-01T10:55:10.999Z,25.26
2019-06-01T10:56:10.975Z,25.13
2019-06-01T10:57:10.990Z,25.06
2019-06-01T10:58:11.040Z,25.10
2019-06-01T10:59:11.051Z,25.08
2019-06-01T11:00:11.072Z,25.03
2019-06-01T11:01:11.098Z,24.99
2019-06-01T11:02:11.121Z,25.10
2019-06-01T11:03:11.155Z,25.01
2019-06-01T11:04:11.175Z,25.22
2019-06-01T11:05:11.206Z,25.33
2019-06-01T11:06:11.234Z,25.36
2019-06-01T11:07:11.252Z,25.44
2019-06-01T11:08:11.282Z,25.44
2019-06-01T11:09:11.307Z,25.54
2019-06-01T11:10:11.409Z,25.50
2019-06-01T11:11:11.363Z,25.53
2019-06-01T11:12:11.390Z,25.23
2019-06-01T11:13:11.485Z,25.07
2019-06-01T11:14:11.440Z,25.10
2019-06-01T11:15:11.463Z,25.28
2019-06-01T11:16:11.488Z,25.33
2019-06-01T11:17:11.523Z,25.50
2019-06-01T11:18:11.549Z,25.48
2019-06-01T11:19:11.592Z,25.73
2019-06-01T11:20:11.598Z,25.78
2019-06-01T11:21:11.622Z,25.65
2019-06-01T11:22:11.658Z,25.44
2019-06-01T11:23:11.681Z,25.51
2019-06-01T11:24:12.007Z,25.58
2019-06-01T11:25:11.731Z,25.63
2019-06-01T11:26:11.755Z,25.68
2019-06-01T11:27:11.781Z,25.73
2019-06-01T11:28:11.811Z,25.72
2019-06-01T11:29:11.832Z,25.83
2019-06-01T11:30:11.860Z,25.77
2019-06-01T11:31:11.892Z,25.68
2019-06-01T11:32:11.922Z,25.63
2019-06-01T11:33:11.943Z,25.59
2019-06-01T11:34:11.966Z,25.55
2019-06-01T11:35:11.993Z,25.54
2019-06-01T11:36:12.023Z,25.72
2019-06-01T11:37:15.261Z,25.81
2019-06-01T11:38:12.071Z,25.96
2019-06-01T11:39:12.100Z,25.80
2019-06-01T11:40:12.126Z,25.55
2019-06-01T11:41:12.147Z,25.41
2019-06-01T11:42:12.180Z,25.38
2019-06-01T11:43:12.210Z,25.46
2019-06-01T11:44:12.233Z,25.41
2019-06-01T11:45:12.262Z,25.46
2019-06-01T11:46:12.288Z,25.55
2019-06-01T11:47:12.306Z,25.72
2019-06-01T11:48:12.333Z,25.81
2019-06-01T11:49:12.369Z,25.81
2019-06-01T11:50:12.389Z,25.85
2019-06-01T11:51:12.416Z,25.93
2019-06-01T11:52:12.443Z,26.02
2019-06-01T11:53:12.466Z,26.15
2019-06-01T11:54:12.494Z,26.15
2019-06-01T11:55:12.519Z,26.19
2019-06-01T11:56:12.550Z,26.06
2019-06-01T11:57:12.639Z,26.06
2019-06-01T11:58:12.613Z,26.21
2019-06-01T11:59:12.630Z,26.38
2019-06-01T12:00:12.663Z,26.31
2019-06-01T12:01:12.680Z,26.15
2019-06-01T12:02:12.707Z,26.06
2019-06-01T12:03:12.743Z,26.09
2019-06-01T12:04:13.163Z,26.02
2019-06-01T12:05:12.787Z,26.05
2019-06-01T12:06:12.810Z,26.09
2019-06-01T12:07:17.414Z,25.99
2019-06-01T12:08:12.866Z,25.93
2019-06-01T12:09:12.890Z,25.98
2019-06-01T12:10:12.917Z,25.99
2019-06-01T12:11:12.951Z,26.10
2019-06-01T12:12:12.975Z,25.93
2019-06-01T12:13:12.997Z,25.73
2019-06-01T12:14:13.031Z,25.53
2019-06-01T12:15:13.050Z,25.58
2019-06-01T12:16:13.083Z,25.48
2019-06-01T12:17:13.117Z,25.70
2019-06-01T12:18:13.145Z,25.87
2019-06-01T12:19:13.165Z,25.99
2019-06-01T12:20:13.185Z,26.05
2019-06-01T12:21:13.215Z,26.06
2019-06-01T12:22:13.239Z,25.93
2019-06-01T12:23:13.263Z,25.63
2019-06-01T12:24:13.295Z,25.69
2019-06-01T12:25:13.321Z,25.81
2019-06-01T12:26:13.348Z,25.98
2019-06-01T12:27:13.367Z,26.16
2019-06-01T12:28:13.402Z,26.29
2019-06-01T12:29:13.420Z,26.34
2019-06-01T12:30:13.447Z,26.25
2019-06-01T12:31:13.475Z,26.38
2019-06-01T12:32:13.501Z,26.25
2019-06-01T12:33:13.530Z,26.09
2019-06-01T12:34:13.554Z,26.07
2019-06-01T12:35:13.581Z,26.22
2019-06-01T12:36:13.606Z,26.33
2019-06-01T12:37:13.635Z,26.41
2019-06-01T12:38:13.658Z,26.26
2019-06-01T12:39:13.685Z,26.23
2019-06-01T12:40:13.712Z,26.33
2019-06-01T12:41:13.744Z,26.37
2019-06-01T12:42:13.766Z,26.43
2019-06-01T12:43:13.797Z,26.33
2019-06-01T12:44:13.818Z,26.40
2019-06-01T12:45:13.848Z,26.48
2019-06-01T12:46:13.871Z,26.48
2019-06-01T12:47:13.900Z,26.52
2019-06-01T12:48:13.929Z,26.65
2019-06-01T12:49:13.953Z,26.60
2019-06-01T12:50:13.988Z,26.48
2019-06-01T12:51:14.014Z,26.51
2019-06-01T12:52:14.033Z,26.52